Time;durP1;ratioP1;P1;durP2;ratioP2;P2;SDS_P1;SDS_P2;PMS_P1;PMS_P2;Temp;Humidity;BMP_temperature;BMP_pressure;BME280_temperature;BME280_humidity;BME280_pressure;Samples;Min_cycle;Max_cycle;Signal;HPM_P1;HPM_P2
2021/04/09 00:01:40;;;;;;;5.95;3.90;;;;;;;4.36;45.53;100639.25;5033979;28;20468;-37
2021/04/09 00:04:05;;;;;;;7.47;4.15;;;;;;;4.66;45.95;100633.81;5050617;28;20029;-37
2021/04/09 00:06:31;;;;;;;6.68;4.00;;;;;;;4.42;45.92;100628.16;5050636;28;20028;-37
2021/04/09 00:08:56;;;;;;;6.63;3.85;;;;;;;4.50;46.85;100621.19;5049944;28;20083;-37
2021/04/09 00:11:22;;;;;;;6.90;4.03;;;;;;;4.39;47.10;100634.53;5050261;28;20074;-37
2021/04/09 00:13:47;;;;;;;6.80;4.25;;;;;;;4.46;45.69;100626.91;5050369;28;20021;-37
2021/04/09 00:16:13;;;;;;;8.70;4.20;;;;;;;4.21;46.78;100625.72;5050244;28;20109;-37
2021/04/09 00:18:38;;;;;;;6.93;3.92;;;;;;;4.17;45.84;100625.16;5050447;28;20043;-37
2021/04/09 00:21:03;;;;;;;6.45;3.90;;;;;;;4.46;46.73;100625.09;5048937;28;20656;-37
2021/04/09 00:23:29;;;;;;;6.05;3.78;;;;;;;4.31;46.32;100619.44;5050360;28;20321;-37
2021/04/09 00:25:54;;;;;;;6.10;3.78;;;;;;;4.09;46.07;100611.84;5050075;28;20040;-37
2021/04/09 00:28:20;;;;;;;6.88;3.80;;;;;;;4.15;46.23;100621.84;5050251;28;20334;-37
2021/04/09 00:30:45;;;;;;;6.82;4.18;;;;;;;4.30;45.96;100623.06;5049950;28;20021;-37
2021/04/09 00:33:11;;;;;;;6.50;4.10;;;;;;;4.09;46.32;100617.09;5049917;28;20032;-37
2021/04/09 00:35:36;;;;;;;6.20;3.72;;;;;;;4.38;45.69;100619.72;5050181;28;20032;-37
2021/04/09 00:38:02;;;;;;;8.52;3.78;;;;;;;4.12;46.10;100603.66;5049989;28;20409;-37
2021/04/09 00:40:27;;;;;;;8.65;4.13;;;;;;;4.17;46.31;100611.97;5048974;28;20094;-38
2021/04/09 00:42:53;;;;;;;7.65;4.10;;;;;;;4.14;48.28;100614.88;5049917;28;20025;-37
2021/04/09 00:45:18;;;;;;;8.23;4.07;;;;;;;4.11;47.84;100615.16;5049627;28;20032;-37
2021/04/09 00:47:44;;;;;;;7.82;4.18;;;;;;;4.19;47.29;100625.84;5049727;28;20534;-38
2021/04/09 00:50:10;;;;;;;8.30;4.05;;;;;;;4.10;46.29;100619.59;5049923;28;20059;-38
2021/04/09 00:52:36;;;;;;;7.13;3.85;;;;;;;3.85;47.36;100615.72;5049955;28;20488;-39
2021/04/09 00:55:03;;;;;;;8.30;3.75;;;;;;;3.85;46.79;100621.00;5052149;28;20447;-38
2021/04/09 00:57:28;;;;;;;7.68;3.70;;;;;;;3.74;46.88;100615.88;5052715;28;20162;-38
2021/04/09 00:59:54;;;;;;;6.68;3.58;;;;;;;3.67;46.48;100612.13;5051640;28;20492;-38
2021/04/09 01:02:19;;;;;;;8.77;3.80;;;;;;;3.98;46.66;100623.38;5052167;28;20029;-38
2021/04/09 01:04:45;;;;;;;12.65;3.55;;;;;;;4.08;45.76;100618.91;5052271;28;20025;-38
2021/04/09 01:07:10;;;;;;;6.05;3.50;;;;;;;4.15;45.75;100620.97;5053851;28;20385;-38
2021/04/09 01:09:36;;;;;;;6.43;3.65;;;;;;;4.24;45.44;100615.69;5053232;28;20057;-38
2021/04/09 01:12:03;;;;;;;6.35;3.40;;;;;;;4.16;45.96;100623.47;5053826;28;20418;-38
2021/04/09 01:14:28;;;;;;;5.93;3.30;;;;;;;4.19;46.58;100619.72;5053565;28;20028;-37
2021/04/09 01:16:58;;;;;;;5.57;3.40;;;;;;;4.35;44.67;100613.88;5053226;28;20021;-38
2021/04/09 01:19:57;;;;;;;5.95;3.60;;;;;;;4.37;46.66;100625.13;5036032;28;20078;-38
2021/04/09 01:22:23;;;;;;;5.88;3.40;;;;;;;4.23;45.98;100626.41;5053580;28;20470;-38
2021/04/09 01:25:13;;;;;;;5.60;3.15;;;;;;;4.29;45.99;100623.19;5053523;28;20043;-37
2021/04/09 01:28:03;;;;;;;6.93;3.70;;;;;;;4.10;45.64;100626.69;5053416;28;20327;-37
2021/04/09 01:30:52;;;;;;;5.47;3.38;;;;;;;4.11;48.84;100631.81;5053415;28;20040;-37
2021/04/09 01:33:17;;;;;;;5.78;3.50;;;;;;;4.36;45.66;100633.97;5053327;28;20029;-38
2021/04/09 01:35:43;;;;;;;7.32;3.53;;;;;;;4.24;46.60;100623.59;5051805;28;20029;-38
2021/04/09 01:38:08;;;;;;;5.75;3.72;;;;;;;4.51;47.22;100635.19;5035354;28;20449;-37
2021/04/09 01:40:35;;;;;;;7.10;3.78;;;;;;;4.41;45.96;100632.59;5051771;28;20397;-37
2021/04/09 01:43:03;;;;;;;5.85;3.72;;;;;;;4.36;46.56;100634.84;5052076;28;20045;-38
2021/04/09 01:45:29;;;;;;;7.32;3.80;;;;;;;4.48;45.08;100632.88;5035360;28;20028;-39
2021/04/09 01:47:54;;;;;;;7.20;4.22;;;;;;;4.37;45.30;100640.94;5051671;28;20039;-39
2021/04/09 01:50:20;;;;;;;5.68;3.50;;;;;;;4.43;45.32;100635.09;5052880;28;20079;-38
2021/04/09 01:52:46;;;;;;;7.00;3.92;;;;;;;4.07;47.01;100629.59;5051576;28;20163;-39
2021/04/09 01:55:12;;;;;;;6.47;3.65;;;;;;;4.02;46.71;100631.81;5035177;28;20037;-38
2021/04/09 01:57:38;;;;;;;7.22;3.65;;;;;;;4.12;46.63;100624.72;5051500;28;20013;-37
2021/04/09 02:00:06;;;;;;;6.45;3.83;;;;;;;4.23;46.93;100634.31;5051544;28;20031;-37
2021/04/09 02:02:31;;;;;;;6.03;3.90;;;;;;;3.98;47.97;100636.53;5052471;28;20025;-38
2021/04/09 02:04:57;;;;;;;8.57;4.38;;;;;;;4.17;45.58;100638.31;5050855;28;20035;-37
2021/04/09 02:07:22;;;;;;;8.05;4.40;;;;;;;4.35;46.35;100640.25;5033646;28;20044;-38
2021/04/09 02:09:48;;;;;;;7.45;4.20;;;;;;;4.06;46.70;100635.84;5051139;28;20041;-37
2021/04/09 02:12:14;;;;;;;7.78;4.53;;;;;;;3.88;47.33;100630.41;5034789;28;20032;-38
2021/04/09 02:14:43;;;;;;;7.82;4.18;;;;;;;3.99;48.26;100640.81;5051237;28;20029;-37
2021/04/09 02:17:09;;;;;;;9.15;4.35;;;;;;;4.32;47.49;100636.06;5051227;28;20025;-38
2021/04/09 02:19:35;;;;;;;9.10;4.40;;;;;;;4.26;47.13;100634.81;5051380;28;20088;-37
2021/04/09 02:22:01;;;;;;;10.07;4.22;;;;;;;4.19;47.01;100641.66;5050863;28;20123;-37
2021/04/09 02:24:26;;;;;;;10.48;4.47;;;;;;;4.22;47.54;100638.72;5051127;28;20500;-38
2021/04/09 02:26:52;;;;;;;7.15;4.30;;;;;;;3.86;48.33;100645.53;5052162;28;20396;-37
2021/04/09 02:29:17;;;;;;;8.23;4.10;;;;;;;3.94;48.04;100634.28;5034465;28;20425;-37
2021/04/09 02:31:43;;;;;;;7.30;4.10;;;;;;;3.70;47.45;100636.38;5052147;28;20017;-38
2021/04/09 02:34:08;;;;;;;7.95;4.38;;;;;;;3.89;47.35;100640.00;5052146;28;20418;-37
2021/04/09 02:36:34;;;;;;;7.50;4.00;;;;;;;3.89;47.09;100640.81;5052041;28;20100;-38
2021/04/09 02:39:06;;;;;;;6.88;4.28;;;;;;;4.08;47.15;100641.78;5052514;28;20025;-38
2021/04/09 02:41:33;;;;;;;6.63;3.90;;;;;;;3.93;48.15;100644.00;5050942;28;20087;-38
2021/04/09 02:44:00;;;;;;;6.75;3.88;;;;;;;4.06;46.23;100652.47;5050805;28;20047;-38
2021/04/09 02:46:36;;;;;;;9.25;4.00;;;;;;;4.02;46.95;100647.63;5049108;28;20108;-38
2021/04/09 02:49:06;;;;;;;8.52;3.63;;;;;;;3.83;48.71;100653.72;5035977;28;20029;-38
2021/04/09 02:51:32;;;;;;;7.75;4.05;;;;;;;4.08;47.24;100653.16;5050742;28;20025;-38
2021/04/09 02:53:57;;;;;;;7.38;3.95;;;;;;;4.11;45.83;100658.16;5050215;28;20120;-38
2021/04/09 02:56:23;;;;;;;6.55;3.50;;;;;;;4.16;46.84;100659.53;5050304;28;20055;-38
2021/04/09 02:58:49;;;;;;;6.10;3.70;;;;;;;3.88;47.33;100668.13;5033793;28;20028;-38
2021/04/09 03:01:14;;;;;;;9.05;3.97;;;;;;;3.94;47.30;100664.13;5051596;28;20024;-37
2021/04/09 03:03:40;;;;;;;5.80;3.80;;;;;;;3.82;47.12;100668.66;5051012;28;20032;-37
2021/04/09 03:06:06;;;;;;;7.30;3.80;;;;;;;4.01;47.45;100667.84;5050052;28;20029;-37
2021/04/09 03:08:31;;;;;;;6.13;3.25;;;;;;;3.98;46.98;100662.88;5033707;28;20029;-37
2021/04/09 03:11:00;;;;;;;6.90;3.92;;;;;;;3.80;49.55;100665.34;5049877;28;20033;-37
2021/04/09 03:13:25;;;;;;;7.25;3.97;;;;;;;4.07;47.57;100667.31;5050123;28;20021;-37
2021/04/09 03:15:58;;;;;;;6.40;3.83;;;;;;;4.14;46.74;100672.84;5051084;28;20451;-37
2021/04/09 03:18:25;;;;;;;7.55;3.65;;;;;;;3.97;47.28;100676.16;5051396;28;20044;-37
2021/04/09 03:20:50;;;;;;;7.35;3.88;;;;;;;3.99;48.39;100674.22;5049955;28;20028;-37
2021/04/09 03:23:16;;;;;;;6.20;3.80;;;;;;;3.67;47.52;100678.75;5051361;28;20051;-37
2021/04/09 03:25:41;;;;;;;9.43;4.93;;;;;;;3.79;47.64;100687.38;5051167;28;20036;-37
2021/04/09 03:28:07;;;;;;;8.38;4.50;;;;;;;3.61;47.60;100678.47;5047674;28;20017;-37
2021/04/09 03:30:32;;;;;;;9.48;4.65;;;;;;;3.84;47.61;100676.44;5048870;28;20087;-38
2021/04/09 03:32:58;;;;;;;11.13;4.75;;;;;;;3.73;48.97;100690.53;5050876;28;20078;-38
2021/04/09 03:35:23;;;;;;;8.20;4.80;;;;;;;3.74;47.71;100689.59;5050837;28;20070;-38
2021/04/09 03:37:49;;;;;;;9.30;5.10;;;;;;;3.67;47.81;100688.44;5050964;28;20428;-38
2021/04/09 03:40:15;;;;;;;11.05;5.22;;;;;;;4.70;46.54;100690.56;5050855;28;20078;-37
2021/04/09 03:42:40;;;;;;;10.50;5.22;;;;;;;4.36;46.68;100682.28;5050687;28;20404;-37
2021/04/09 03:45:06;;;;;;;12.00;6.10;;;;;;;4.12;47.36;100693.22;5049703;28;20024;-38
2021/04/09 03:47:32;;;;;;;9.48;5.80;;;;;;;4.04;49.33;100698.38;5046460;28;20028;-38
2021/04/09 03:49:57;;;;;;;13.55;6.82;;;;;;;3.89;47.77;100693.47;5030929;28;20025;-37
2021/04/09 03:52:23;;;;;;;12.63;6.95;;;;;;;3.99;48.20;100701.38;5030832;28;20032;-38
2021/04/09 03:54:48;;;;;;;12.40;5.95;;;;;;;4.12;48.45;100698.50;5030518;28;20060;-37
2021/04/09 03:57:14;;;;;;;13.55;6.30;;;;;;;4.10;47.44;100697.81;5030447;28;20021;-37
2021/04/09 03:59:39;;;;;;;12.10;7.38;;;;;;;4.15;47.18;100706.13;5041251;28;20029;-38
2021/04/09 04:02:05;;;;;;;15.65;6.60;;;;;;;3.89;48.01;100714.56;5037508;28;20032;-38
2021/04/09 04:04:30;;;;;;;14.75;7.35;;;;;;;4.04;47.77;100711.53;5050527;28;20115;-38
2021/04/09 04:06:56;;;;;;;15.40;6.88;;;;;;;4.02;47.31;100716.09;5050690;28;20029;-37
2021/04/09 04:09:21;;;;;;;13.60;6.60;;;;;;;4.53;46.50;100716.78;5050011;28;20055;-37
2021/04/09 04:11:47;;;;;;;10.48;6.25;;;;;;;4.73;47.75;100715.78;5050320;28;20017;-38
2021/04/09 04:14:12;;;;;;;9.77;6.18;;;;;;;4.84;46.26;100722.72;5050266;28;20033;-37
2021/04/09 04:16:38;;;;;;;12.00;5.85;;;;;;;5.06;45.87;100727.66;5050380;28;20440;-38
2021/04/09 04:19:03;;;;;;;13.38;5.93;;;;;;;5.22;45.78;100729.69;5050341;28;20041;-38
2021/04/09 04:21:29;;;;;;;10.90;5.55;;;;;;;5.57;44.38;100729.94;5050433;28;20108;-38
2021/04/09 04:23:54;;;;;;;13.60;5.88;;;;;;;5.48;44.68;100731.66;5050016;28;20021;-49
2021/04/09 04:26:20;;;;;;;8.77;5.20;;;;;;;5.68;44.04;100735.88;5050045;28;20039;-51
2021/04/09 04:28:45;;;;;;;12.00;5.85;;;;;;;5.97;43.85;100734.88;5051259;28;20021;-50
2021/04/09 04:31:11;;;;;;;12.35;5.65;;;;;;;6.19;43.30;100733.63;5055560;28;20064;-52
2021/04/09 04:33:37;;;;;;;10.73;5.82;;;;;;;6.29;42.88;100733.56;5056607;28;20020;-53
2021/04/09 04:36:02;;;;;;;12.10;6.35;;;;;;;6.39;42.87;100739.59;5056717;28;20099;-51
2021/04/09 04:38:28;;;;;;;12.82;6.65;;;;;;;7.44;41.84;100750.22;5052317;28;20033;-49
2021/04/09 04:40:53;;;;;;;11.68;6.28;;;;;;;7.30;41.67;100749.00;5039196;28;20123;-52
2021/04/09 04:43:19;;;;;;;11.38;6.13;;;;;;;7.23;41.52;100756.75;5044550;28;20025;-49
2021/04/09 04:45:45;;;;;;;11.73;6.53;;;;;;;6.94;41.17;100758.88;5036439;28;20021;-50
2021/04/09 04:48:11;;;;;;;9.88;5.40;;;;;;;7.21;40.41;100760.53;5045414;28;20021;-52
2021/04/09 04:50:36;;;;;;;23.00;12.35;;;;;;;7.26;40.23;100760.06;5055915;28;20013;-52
2021/04/09 04:53:02;;;;;;;9.10;4.70;;;;;;;8.66;54.75;100772.75;5055537;28;20052;-52
2021/04/09 04:55:27;;;;;;;9.30;4.97;;;;;;;9.22;42.63;100775.53;5055303;28;20025;-50
2021/04/09 04:57:53;;;;;;;7.88;4.30;;;;;;;10.64;38.30;100778.16;5055349;28;20017;-52
2021/04/09 05:00:19;;;;;;;11.50;4.15;;;;;;;10.61;36.59;100787.34;5055465;28;20039;-50
2021/04/09 05:02:44;;;;;;;9.18;4.05;;;;;;;10.43;37.09;100784.97;5053911;28;20516;-49
2021/04/09 05:05:10;;;;;;;7.60;3.97;;;;;;;10.02;37.95;100785.19;5055229;28;20038;-52
2021/04/09 05:07:36;;;;;;;7.68;4.10;;;;;;;9.93;37.71;100794.22;5055173;28;20029;-52
2021/04/09 05:10:01;;;;;;;8.70;4.13;;;;;;;10.37;34.99;100791.81;5052869;28;20063;-50
2021/04/09 05:12:27;;;;;;;10.63;4.07;;;;;;;10.07;35.34;100790.81;5055448;28;20465;-50
2021/04/09 05:14:53;;;;;;;6.55;3.95;;;;;;;11.20;36.27;100794.66;5055500;28;20029;-52
2021/04/09 05:17:18;;;;;;;7.72;3.97;;;;;;;10.64;34.93;100794.13;5054640;28;20017;-52
2021/04/09 05:19:44;;;;;;;7.93;4.20;;;;;;;10.92;33.82;100799.72;5054830;28;20049;-48
2021/04/09 05:22:10;;;;;;;9.85;4.35;;;;;;;11.23;34.16;100802.28;5055503;28;20033;-50
2021/04/09 05:24:35;;;;;;;6.57;4.00;;;;;;;11.20;35.38;100802.63;5055429;28;20029;-47
2021/04/09 05:27:02;;;;;;;9.60;4.20;;;;;;;11.21;34.19;100800.78;5055618;28;20037;-50
2021/04/09 05:29:28;;;;;;;7.47;3.97;;;;;;;10.76;33.75;100804.19;5055132;28;20111;-51
2021/04/09 05:31:53;;;;;;;8.45;4.63;;;;;;;12.26;32.23;100805.06;5055629;28;20108;-50
2021/04/09 05:34:19;;;;;;;9.35;5.22;;;;;;;12.91;31.62;100808.59;5055067;28;20083;-51
2021/04/09 05:36:44;;;;;;;12.63;6.85;;;;;;;13.59;31.19;100819.56;5055501;28;20021;-49
2021/04/09 05:39:10;;;;;;;7.47;4.13;;;;;;;12.62;30.01;100822.88;5055288;28;20187;-48
2021/04/09 05:41:35;;;;;;;6.40;4.45;;;;;;;13.17;30.15;100815.97;5051780;28;20503;-49
2021/04/09 05:44:01;;;;;;;7.18;3.97;;;;;;;13.37;30.24;100824.16;5052348;28;20442;-50
2021/04/09 05:46:26;;;;;;;10.85;4.57;;;;;;;14.13;28.63;100836.72;5052118;28;20048;-51
2021/04/09 05:48:51;;;;;;;8.20;4.68;;;;;;;14.20;28.18;100842.06;5052007;28;20029;-50
2021/04/09 05:51:17;;;;;;;11.88;4.85;;;;;;;14.04;29.08;100841.41;5052069;28;20344;-52
2021/04/09 05:53:43;;;;;;;11.00;5.07;;;;;;;13.98;28.75;100841.38;5051897;28;20122;-50
2021/04/09 05:56:08;;;;;;;7.90;4.80;;;;;;;14.12;28.42;100844.94;5050773;28;20052;-51
2021/04/09 05:58:35;;;;;;;8.88;4.63;;;;;;;14.51;28.62;100846.06;5051862;28;20021;-53
2021/04/09 06:01:00;;;;;;;7.65;4.78;;;;;;;14.52;28.81;100842.38;5048656;28;20636;-51
2021/04/09 06:03:25;;;;;;;8.38;5.03;;;;;;;15.05;28.18;100845.97;5051300;28;20032;-52
2021/04/09 06:05:51;;;;;;;10.07;5.60;;;;;;;15.59;27.66;100843.25;5051167;28;20058;-49
2021/04/09 06:08:16;;;;;;;11.80;5.53;;;;;;;16.05;26.58;100846.84;5051255;28;20047;-52
2021/04/09 06:10:42;;;;;;;13.70;5.47;;;;;;;16.36;26.06;100849.59;5051456;28;20206;-52
2021/04/09 06:13:07;;;;;;;9.23;5.32;;;;;;;15.96;27.01;100848.97;5051632;28;20033;-51
2021/04/09 06:15:33;;;;;;;9.95;5.63;;;;;;;16.74;26.87;100843.38;5051464;28;20095;-52
2021/04/09 06:17:58;;;;;;;11.60;6.10;;;;;;;17.23;26.37;100842.81;5051654;28;20466;-51
2021/04/09 06:20:24;;;;;;;10.10;5.75;;;;;;;16.93;26.38;100844.31;5051383;28;20025;-48
2021/04/09 06:22:49;;;;;;;12.07;6.00;;;;;;;17.00;26.19;100855.00;5051260;28;20029;-50
2021/04/09 06:25:19;;;;;;;8.88;5.97;;;;;;;16.83;26.57;100861.94;5051284;28;20021;-50
2021/04/09 06:27:45;;;;;;;8.30;5.68;;;;;;;16.87;26.07;100853.25;5051108;28;20045;-49
2021/04/09 06:30:11;;;;;;;9.32;5.93;;;;;;;16.80;26.83;100853.25;5049667;28;20396;-51
2021/04/09 06:32:36;;;;;;;10.40;5.90;;;;;;;16.67;27.28;100858.72;5051478;28;20087;-51
2021/04/09 06:35:02;;;;;;;8.80;5.50;;;;;;;16.90;27.17;100863.56;5050773;28;20373;-51
2021/04/09 06:37:27;;;;;;;10.77;5.43;;;;;;;17.17;26.81;100855.28;5049835;28;20100;-50
2021/04/09 06:39:53;;;;;;;17.45;8.60;;;;;;;17.11;26.66;100862.34;5051034;28;20028;-50
2021/04/09 06:42:19;;;;;;;27.38;14.90;;;;;;;17.78;25.62;100854.50;5051352;28;20036;-49
2021/04/09 06:44:48;;;;;;;9.43;5.55;;;;;;;16.81;25.86;100859.44;5051395;28;20042;-48
2021/04/09 06:47:13;;;;;;;10.98;5.97;;;;;;;16.65;27.21;100863.50;5049380;28;20073;-49
2021/04/09 06:49:42;;;;;;;12.45;6.70;;;;;;;16.69;26.52;100864.69;5030914;28;20168;-54
2021/04/09 06:52:12;;;;;;;10.43;5.90;;;;;;;16.72;26.77;100866.97;5030479;28;20091;-50
2021/04/09 06:54:38;;;;;;;9.48;5.88;;;;;;;16.96;26.98;100869.94;5030273;28;20040;-52
2021/04/09 06:57:03;;;;;;;11.07;6.45;;;;;;;17.31;26.26;100869.47;5029434;28;20028;-51
2021/04/09 06:59:30;;;;;;;10.50;6.15;;;;;;;17.90;25.70;100870.75;5030412;28;20021;-51
2021/04/09 07:01:55;;;;;;;9.77;6.25;;;;;;;18.61;24.99;100875.66;5036230;28;20016;-50
2021/04/09 07:04:21;;;;;;;10.75;6.43;;;;;;;19.15;24.81;100871.09;5032770;28;20024;-51
2021/04/09 07:06:46;;;;;;;10.02;5.72;;;;;;;19.18;23.90;100873.34;5049230;28;20043;-39
2021/04/09 07:09:14;;;;;;;10.57;5.53;;;;;;;18.33;24.92;100872.50;5050316;28;20374;-38
2021/04/09 07:11:39;;;;;;;10.65;5.20;;;;;;;17.64;25.12;100842.22;5049008;28;20048;-39
2021/04/09 07:14:05;;;;;;;8.57;4.78;;;;;;;17.83;25.95;100861.88;5032824;28;20469;-39
2021/04/09 07:16:30;;;;;;;10.07;5.20;;;;;;;17.55;25.73;100862.38;5050631;28;20039;-39
2021/04/09 07:19:04;;;;;;;9.90;4.80;;;;;;;17.88;24.90;100864.75;5050764;28;20035;-38
2021/04/09 07:21:33;;;;;;;10.85;5.22;;;;;;;18.28;25.32;100866.16;5050646;28;20047;-38
2021/04/09 07:24:14;;;;;;;9.75;4.60;;;;;;;18.31;24.57;100879.97;5050117;28;20094;-38
2021/04/09 07:26:43;;;;;;;6.88;4.13;;;;;;;18.49;24.35;100875.63;5050651;28;20535;-39
2021/04/09 07:29:30;;;;;;;6.03;3.75;;;;;;;18.08;24.61;100875.28;5050507;28;20143;-39
2021/04/09 07:32:15;;;;;;;7.47;4.20;;;;;;;17.70;24.50;100873.59;5045513;28;20041;-39
2021/04/09 07:34:53;;;;;;;6.38;4.22;;;;;;;18.18;24.26;100874.75;5043090;28;20045;-39
2021/04/09 07:37:22;;;;;;;10.05;3.95;;;;;;;19.00;23.96;100876.13;5050800;28;20021;-39
2021/04/09 07:39:58;;;;;;;;;;;;;;;17.92;23.54;100873.22;5051968;28;20037;-39
2021/04/09 07:42:31;;;;;;;9.70;3.97;;;;;;;17.45;24.71;100878.22;5050783;28;19916;-38
2021/04/09 07:44:58;;;;;;;12.25;3.28;;;;;;;17.11;24.06;100869.59;5050646;28;20566;-38
2021/04/09 07:47:26;;;;;;;5.65;3.05;;;;;;;16.83;24.25;100883.47;5049743;28;20027;-39
2021/04/09 07:49:59;;;;;;;4.03;2.70;;;;;;;17.65;22.87;100878.00;5049949;28;20111;-39
2021/04/09 07:52:26;;;;;;;5.82;3.28;;;;;;;18.51;22.47;100881.59;5047685;28;20078;-38
2021/04/09 07:54:51;;;;;;;4.95;3.20;;;;;;;18.50;22.85;100878.06;5049691;28;20025;-38
2021/04/09 07:57:29;;;;;;;11.30;3.25;;;;;;;18.56;22.12;100879.03;5049907;28;20029;-39
2021/04/09 07:59:54;;;;;;;5.18;2.75;;;;;;;18.97;21.73;100882.81;5049883;28;20067;-38
2021/04/09 08:02:37;;;;;;;5.80;2.95;;;;;;;18.50;22.46;100879.94;5049603;28;20396;-38
2021/04/09 08:05:02;;;;;;;5.72;2.55;;;;;;;19.14;21.50;100886.47;5049131;28;20060;-39
2021/04/09 08:07:32;;;;;;;5.70;4.10;;;;;;;19.33;21.90;100889.91;5049590;28;20029;-39
2021/04/09 08:09:57;;;;;;;7.10;4.57;;;;;;;19.20;21.10;100886.63;5049583;28;20072;-38
2021/04/09 08:12:27;;;;;;;3.90;2.40;;;;;;;18.46;21.62;100881.47;5050045;28;20083;-39
2021/04/09 08:14:55;;;;;;;6.32;2.83;;;;;;;18.43;21.99;100877.34;5049978;28;20076;-38
2021/04/09 08:17:22;;;;;;;6.82;3.05;;;;;;;18.34;21.79;100884.91;5048357;28;20036;-38
2021/04/09 08:19:56;;;;;;;5.15;3.03;;;;;;;18.56;21.31;100879.88;5049681;28;20025;-39
2021/04/09 08:22:22;;;;;;;3.95;2.85;;;;;;;19.31;20.60;100885.81;5049671;28;20021;-38
2021/04/09 08:24:47;;;;;;;3.88;2.50;;;;;;;19.41;20.86;100888.72;5049207;28;20048;-38
2021/04/09 08:27:13;;;;;;;4.18;2.70;;;;;;;20.30;20.75;100879.59;5049498;28;20405;-38
2021/04/09 08:29:39;;;;;;;4.00;2.90;;;;;;;19.58;21.37;100891.56;5049538;28;20040;-39
2021/04/09 08:32:04;;;;;;;5.80;2.63;;;;;;;19.97;21.70;100891.06;5048283;28;20024;-39
2021/04/09 08:34:30;;;;;;;7.55;2.83;;;;;;;19.88;21.07;100904.13;5031393;28;20029;-39
2021/04/09 08:36:57;;;;;;;4.05;2.50;;;;;;;20.18;20.68;100889.59;5048091;28;20348;-39
2021/04/09 08:39:23;;;;;;;3.60;2.38;;;;;;;20.35;20.14;100893.19;5031572;28;20049;-39
2021/04/09 08:41:49;;;;;;;4.68;2.50;;;;;;;19.27;21.71;100895.44;5031157;28;20032;-39
2021/04/09 08:44:14;;;;;;;3.47;2.50;;;;;;;19.36;21.44;100883.22;5049176;28;20100;-39
2021/04/09 08:46:40;;;;;;;3.80;2.60;;;;;;;20.07;20.27;100886.72;5049053;28;20358;-39
2021/04/09 08:49:07;;;;;;;3.88;2.50;;;;;;;18.28;21.41;100882.31;5031990;28;20519;-38
2021/04/09 08:51:33;;;;;;;3.97;2.60;;;;;;;19.21;20.68;100889.09;5028324;28;20035;-39
2021/04/09 08:54:19;;;;;;;5.45;2.83;;;;;;;19.75;20.62;100888.19;5028181;28;20034;-39
2021/04/09 08:56:44;;;;;;;3.53;2.70;;;;;;;20.33;20.13;100883.69;5029402;28;20028;-39
2021/04/09 08:59:10;;;;;;;5.95;2.75;;;;;;;20.07;21.70;100881.31;5028037;28;20026;-38
2021/04/09 09:01:35;;;;;;;3.60;2.60;;;;;;;20.19;20.99;100889.38;5027669;28;20030;-39
2021/04/09 09:04:22;;;;;;;4.10;2.72;;;;;;;20.18;20.62;100882.34;5029045;28;20033;-40
2021/04/09 09:06:49;;;;;;;3.78;2.65;;;;;;;20.13;20.51;100889.53;5029141;28;20078;-40
2021/04/09 09:09:27;;;;;;;5.22;2.55;;;;;;;19.55;20.59;100881.22;5029245;28;20064;-38
2021/04/09 09:11:54;;;;;;;3.80;2.80;;;;;;;19.28;21.06;100876.28;5029294;28;20052;-39
2021/04/09 09:14:39;;;;;;;4.35;2.60;;;;;;;20.26;20.44;100878.44;5029105;28;20029;-37
2021/04/09 09:17:16;;;;;;;4.90;2.58;;;;;;;19.33;20.34;100887.22;5032816;28;20488;-39
2021/04/09 09:19:42;;;;;;;3.60;2.42;;;;;;;19.70;20.08;100887.00;5033004;28;20026;-39
2021/04/09 09:22:32;;;;;;;4.82;2.40;;;;;;;20.41;20.46;100877.88;5032800;28;20045;-39
2021/04/09 09:25:04;;;;;;;3.45;2.60;;;;;;;20.41;20.56;100870.63;5031344;28;20026;-38
2021/04/09 09:28:02;;;;;;;3.60;2.33;;;;;;;20.50;20.35;100873.75;5032288;28;20029;-39
2021/04/09 09:30:36;;;;;;;3.05;2.40;;;;;;;21.14;20.15;100878.13;4998964;28;20060;-38
2021/04/09 09:33:20;;;;;;;4.07;2.38;;;;;;;19.59;21.63;100878.88;5031856;28;20048;-39
2021/04/09 09:36:01;;;;;;;3.72;2.63;;;;;;;20.21;20.99;100865.63;5032386;28;20068;-38
2021/04/09 09:38:54;;;;;;;3.75;2.58;;;;;;;19.48;20.56;100881.34;5032957;28;20083;-39
2021/04/09 09:41:36;;;;;;;73.53;45.58;;;;;;;19.11;20.65;100876.19;5029862;28;20033;-39
2021/04/09 09:44:02;;;;;;;8.70;5.47;;;;;;;18.26;21.09;100871.78;5031527;28;20045;-38
2021/04/09 09:46:49;;;;;;;6.97;2.60;;;;;;;18.97;19.99;100871.22;5032773;28;20323;-39
2021/04/09 09:49:15;;;;;;;4.80;2.47;;;;;;;19.61;19.62;100876.75;5032343;28;20063;-39
2021/04/09 09:51:40;;;;;;;4.78;2.40;;;;;;;20.14;18.87;100870.34;5032298;28;20029;-39
2021/04/09 09:54:06;;;;;;;4.13;2.42;;;;;;;19.57;19.53;100876.41;5032165;28;20112;-39
2021/04/09 09:56:31;;;;;;;3.45;2.30;;;;;;;19.46;20.26;100869.97;5032407;28;20120;-39
2021/04/09 09:58:57;;;;;;;3.17;2.40;;;;;;;19.26;20.23;100861.41;5031912;28;20036;-38
2021/04/09 10:01:28;;;;;;;2.83;2.22;;;;;;;19.18;20.48;100859.06;5030955;28;20452;-40
2021/04/09 10:03:53;;;;;;;5.40;2.40;;;;;;;18.47;21.01;100853.47;5031825;28;20049;-38
2021/04/09 10:06:27;;;;;;;3.78;2.25;;;;;;;18.41;21.42;100857.91;5014256;28;20094;-40
2021/04/09 10:08:52;;;;;;;5.47;2.40;;;;;;;19.36;20.73;100855.41;5030453;28;20037;-39
2021/04/09 10:11:19;;;;;;;5.50;2.80;;;;;;;19.27;20.96;100846.84;5031660;28;20036;-40
2021/04/09 10:13:45;;;;;;;6.03;2.60;;;;;;;18.64;21.80;100854.47;5031678;28;20029;-39
2021/04/09 10:16:12;;;;;;;5.82;2.42;;;;;;;18.73;20.53;100858.47;5031971;28;20044;-39
2021/04/09 10:18:39;;;;;;;4.78;2.40;;;;;;;19.09;20.63;100864.78;5030469;28;20029;-39
2021/04/09 10:21:18;;;;;;;2.88;2.17;;;;;;;19.19;20.90;100864.22;5031647;28;20091;-39
2021/04/09 10:23:45;;;;;;;2.92;2.13;;;;;;;19.12;20.94;100855.41;5031579;28;20025;-39
2021/04/09 10:26:11;;;;;;;2.75;2.20;;;;;;;19.58;20.28;100861.03;5030167;28;20033;-38
2021/04/09 10:28:37;;;;;;;3.80;2.03;;;;;;;19.97;19.48;100853.25;5030954;28;20055;-39
2021/04/09 10:31:23;;;;;;;4.03;2.40;;;;;;;20.13;19.24;100855.22;5031501;28;20541;-38
2021/04/09 10:33:50;;;;;;;2.92;2.17;;;;;;;20.68;19.09;100851.94;5031599;28;20075;-39
2021/04/09 10:36:36;;;;;;;2.83;2.13;;;;;;;19.62;19.55;100848.72;5031381;28;20029;-39
2021/04/09 10:39:10;;;;;;;4.28;2.20;;;;;;;21.15;19.58;100850.00;5031139;28;20095;-38
2021/04/09 10:41:37;;;;;;;21.23;13.50;;;;;;;20.92;17.85;100845.56;5031444;28;20038;-39
2021/04/09 10:44:24;;;;;;;8.88;4.78;;;;;;;19.79;18.22;100854.25;5031232;28;20033;-38
2021/04/09 10:46:54;;;;;;;2.35;1.90;;;;;;;19.70;18.58;100848.34;5031165;28;20041;-39
2021/04/09 10:49:21;;;;;;;3.38;2.17;;;;;;;18.65;19.94;100848.00;5050151;28;20082;-39
2021/04/09 10:51:50;;;;;;;3.28;2.60;;;;;;;19.34;19.39;100847.53;5050920;28;20078;-38
2021/04/09 10:54:26;;;;;;;3.37;2.37;;;;;;;19.74;19.31;100849.53;5051073;28;20052;-39
2021/04/09 10:57:00;;;;;;;2.97;2.50;;;;;;;20.14;18.82;100843.31;5051096;28;20029;-39
2021/04/09 10:59:32;;;;;;;2.97;2.05;;;;;;;19.44;19.10;100846.94;5050872;28;20346;-39
2021/04/09 11:01:58;;;;;;;2.45;2.05;;;;;;;19.35;18.83;100830.31;5051068;28;20035;-39
2021/04/09 11:04:25;;;;;;;4.10;2.53;;;;;;;18.89;18.72;100843.53;5050932;28;20100;-40
2021/04/09 11:06:52;;;;;;;6.13;2.30;;;;;;;18.19;19.91;100833.31;5049552;28;20114;-38
2021/04/09 11:09:17;;;;;;;2.83;2.00;;;;;;;18.56;19.59;100836.75;5050592;28;20110;-41
2021/04/09 11:11:43;;;;;;;3.78;2.15;;;;;;;19.27;18.96;100834.19;5050795;28;20128;-38
2021/04/09 11:14:12;;;;;;;4.15;2.35;;;;;;;19.54;18.20;100821.00;5050778;28;20025;-38
2021/04/09 11:16:50;;;;;;;2.53;1.90;;;;;;;18.76;17.96;100820.25;5051018;28;20021;-38
2021/04/09 11:19:35;;;;;;;2.67;1.88;;;;;;;18.15;18.62;100818.66;5051054;28;20116;-39
2021/04/09 11:22:03;;;;;;;5.55;1.83;;;;;;;18.39;19.02;100826.81;5050367;28;20381;-37
2021/04/09 11:24:35;;;;;;;3.67;2.00;;;;;;;18.87;19.49;100826.75;5050532;28;20404;-39
2021/04/09 11:27:03;;;;;;;4.00;1.73;;;;;;;18.61;20.28;100814.47;5050264;28;20425;-38
2021/04/09 11:29:32;;;;;;;2.92;2.00;;;;;;;18.84;20.03;100819.13;5050408;28;20040;-39
2021/04/09 11:32:18;;;;;;;4.80;1.77;;;;;;;18.63;19.82;100822.34;5048933;28;20491;-39